sensor_id;sensor_type;location;lat;lon;timestamp;temperature;humidity
50556;DHT22;36508;52.512;13.450;2022-08-03T00:00:07;22.30;99.90
50556;DHT22;36508;52.512;13.450;2022-08-03T00:02:33;22.30;99.90
50556;DHT22;36508;52.512;13.450;2022-08-03T00:04:59;22.30;99.90
50556;DHT22;36508;52.512;13.450;2022-08-03T00:07:25;22.30;99.90
50556;DHT22;36508;52.512;13.450;2022-08-03T00:09:50;22.30;99.90
50556;DHT22;36508;52.512;13.450;2022-08-03T00:12:19;22.30;99.90
50556;DHT22;36508;52.512;13.450;2022-08-03T00:14:45;22.40;99.90
50556;DHT22;36508;52.512;13.450;2022-08-03T00:17:11;22.40;99.90
50556;DHT22;36508;52.512;13.450;2022-08-03T00:19:37;22.40;99.90
50556;DHT22;36508;52.512;13.450;2022-08-03T00:22:03;22.30;99.90
50556;DHT22;36508;52.512;13.450;2022-08-03T00:24:29;22.30;99.90
50556;DHT22;36508;52.512;13.450;2022-08-03T00:26:55;22.30;99.90
50556;DHT22;36508;52.512;13.450;2022-08-03T00:29:21;22.30;99.90
50556;DHT22;36508;52.512;13.450;2022-08-03T00:31:47;22.30;99.90
50556;DHT22;36508;52.512;13.450;2022-08-03T00:34:13;22.40;99.90
50556;DHT22;36508;52.512;13.450;2022-08-03T00:36:39;22.40;99.90
50556;DHT22;36508;52.512;13.450;2022-08-03T00:39:05;22.40;99.90
50556;DHT22;36508;52.512;13.450;2022-08-03T00:41:30;22.50;99.90
50556;DHT22;36508;52.512;13.450;2022-08-03T00:43:56;22.40;99.90
50556;DHT22;36508;52.512;13.450;2022-08-03T00:46:21;22.40;99.90
50556;DHT22;36508;52.512;13.450;2022-08-03T00:48:51;22.50;99.90
50556;DHT22;36508;52.512;13.450;2022-08-03T00:51:19;22.60;99.90
50556;DHT22;36508;52.512;13.450;2022-08-03T00:53:46;22.60;99.90
50556;DHT22;36508;52.512;13.450;2022-08-03T00:56:14;22.60;99.90
50556;DHT22;36508;52.512;13.450;2022-08-03T00:58:40;22.60;99.90
50556;DHT22;36508;52.512;13.450;2022-08-03T01:01:06;22.60;99.90
50556;DHT22;36508;52.512;13.450;2022-08-03T01:03:32;22.60;99.90
50556;DHT22;36508;52.512;13.450;2022-08-03T01:14:12;22.60;99.90
50556;DHT22;36508;52.512;13.450;2022-08-03T01:19:39;22.70;99.90
50556;DHT22;36508;52.512;13.450;2022-08-03T01:30:34;22.60;99.90
50556;DHT22;36508;52.512;13.450;2022-08-03T01:33:21;22.70;99.90
50556;DHT22;36508;52.512;13.450;2022-08-03T01:36:11;22.60;99.90
50556;DHT22;36508;52.512;13.450;2022-08-03T01:38:42;22.60;99.90
50556;DHT22;36508;52.512;13.450;2022-08-03T01:41:16;22.60;99.90
50556;DHT22;36508;52.512;13.450;2022-08-03T01:43:44;22.60;99.90
50556;DHT22;36508;52.512;13.450;2022-08-03T01:46:15;22.60;99.90
50556;DHT22;36508;52.512;13.450;2022-08-03T01:48:42;22.60;99.90
50556;DHT22;36508;52.512;13.450;2022-08-03T01:51:09;22.50;99.90
50556;DHT22;36508;52.512;13.450;2022-08-03T01:53:37;22.60;99.90
50556;DHT22;36508;52.512;13.450;2022-08-03T01:56:08;22.50;99.90
50556;DHT22;36508;52.512;13.450;2022-08-03T01:58:36;22.50;99.90
50556;DHT22;36508;52.512;13.450;2022-08-03T02:01:03;22.50;99.90
50556;DHT22;36508;52.512;13.450;2022-08-03T02:03:32;22.50;99.90
50556;DHT22;36508;52.512;13.450;2022-08-03T02:05:59;22.40;99.90
50556;DHT22;36508;52.512;13.450;2022-08-03T02:08:26;22.40;99.90
50556;DHT22;36508;52.512;13.450;2022-08-03T02:10:54;22.40;99.90
50556;DHT22;36508;52.512;13.450;2022-08-03T02:13:21;22.50;99.90
50556;DHT22;36508;52.512;13.450;2022-08-03T02:15:49;22.50;99.90
50556;DHT22;36508;52.512;13.450;2022-08-03T02:18:17;22.40;99.90
50556;DHT22;36508;52.512;13.450;2022-08-03T02:20:45;22.50;99.90
50556;DHT22;36508;52.512;13.450;2022-08-03T02:23:14;22.50;99.90
50556;DHT22;36508;52.512;13.450;2022-08-03T02:25:46;22.50;99.90
50556;DHT22;36508;52.512;13.450;2022-08-03T02:28:36;22.60;99.90
50556;DHT22;36508;52.512;13.450;2022-08-03T02:31:11;22.40;99.90
50556;DHT22;36508;52.512;13.450;2022-08-03T02:33:42;22.30;99.90
50556;DHT22;36508;52.512;13.450;2022-08-03T02:36:10;22.20;99.90
50556;DHT22;36508;52.512;13.450;2022-08-03T02:38:40;22.20;99.90
50556;DHT22;36508;52.512;13.450;2022-08-03T02:41:10;22.20;99.90
50556;DHT22;36508;52.512;13.450;2022-08-03T02:43:39;22.20;99.90
50556;DHT22;36508;52.512;13.450;2022-08-03T02:46:06;22.20;99.90
50556;DHT22;36508;52.512;13.450;2022-08-03T02:48:36;22.30;99.90
50556;DHT22;36508;52.512;13.450;2022-08-03T02:51:03;22.40;99.90
50556;DHT22;36508;52.512;13.450;2022-08-03T02:53:30;22.40;99.90
50556;DHT22;36508;52.512;13.450;2022-08-03T02:55:59;22.40;99.90
50556;DHT22;36508;52.512;13.450;2022-08-03T02:58:26;22.40;99.90
50556;DHT22;36508;52.512;13.450;2022-08-03T03:00:52;22.30;99.90
50556;DHT22;36508;52.512;13.450;2022-08-03T03:03:20;22.30;99.90
50556;DHT22;36508;52.512;13.450;2022-08-03T03:05:46;22.40;99.90
50556;DHT22;36508;52.512;13.450;2022-08-03T03:08:14;22.30;99.90
50556;DHT22;36508;52.512;13.450;2022-08-03T03:10:41;22.30;99.90
50556;DHT22;36508;52.512;13.450;2022-08-03T03:13:08;22.20;99.90
50556;DHT22;36508;52.512;13.450;2022-08-03T03:15:34;22.10;99.90
50556;DHT22;36508;52.512;13.450;2022-08-03T03:18:02;22.10;99.90
50556;DHT22;36508;52.512;13.450;2022-08-03T03:20:28;22.00;99.90
50556;DHT22;36508;52.512;13.450;2022-08-03T03:22:55;22.00;99.90
50556;DHT22;36508;52.512;13.450;2022-08-03T03:25:23;22.10;99.90
50556;DHT22;36508;52.512;13.450;2022-08-03T03:27:50;22.00;99.90
50556;DHT22;36508;52.512;13.450;2022-08-03T03:30:16;22.10;99.90
50556;DHT22;36508;52.512;13.450;2022-08-03T03:32:42;22.00;99.90
50556;DHT22;36508;52.512;13.450;2022-08-03T03:35:08;21.80;99.90
50556;DHT22;36508;52.512;13.450;2022-08-03T03:37:35;21.90;99.90
50556;DHT22;36508;52.512;13.450;2022-08-03T03:40:01;22.00;99.90
50556;DHT22;36508;52.512;13.450;2022-08-03T03:42:29;22.00;99.90
50556;DHT22;36508;52.512;13.450;2022-08-03T03:44:55;22.10;99.90
50556;DHT22;36508;52.512;13.450;2022-08-03T03:47:21;22.10;99.90
50556;DHT22;36508;52.512;13.450;2022-08-03T03:49:47;22.10;99.90
50556;DHT22;36508;52.512;13.450;2022-08-03T03:52:12;22.10;99.90
50556;DHT22;36508;52.512;13.450;2022-08-03T03:54:42;22.10;99.90
50556;DHT22;36508;52.512;13.450;2022-08-03T03:57:09;22.10;99.90
50556;DHT22;36508;52.512;13.450;2022-08-03T03:59:39;22.10;99.90
50556;DHT22;36508;52.512;13.450;2022-08-03T04:02:07;22.10;99.90
50556;DHT22;36508;52.512;13.450;2022-08-03T04:04:35;22.10;99.90
50556;DHT22;36508;52.512;13.450;2022-08-03T04:07:24;22.10;99.90
50556;DHT22;36508;52.512;13.450;2022-08-03T04:10:16;22.00;99.90
50556;DHT22;36508;52.512;13.450;2022-08-03T04:13:03;21.90;99.90
50556;DHT22;36508;52.512;13.450;2022-08-03T04:15:33;21.90;99.90
50556;DHT22;36508;52.512;13.450;2022-08-03T04:18:00;21.70;99.90
50556;DHT22;36508;52.512;13.450;2022-08-03T04:20:30;21.80;99.90
50556;DHT22;36508;52.512;13.450;2022-08-03T04:22:57;21.80;99.90
50556;DHT22;36508;52.512;13.450;2022-08-03T04:25:29;21.80;99.90
50556;DHT22;36508;52.512;13.450;2022-08-03T04:27:57;21.90;99.90
50556;DHT22;36508;52.512;13.450;2022-08-03T04:30:27;21.90;99.90
50556;DHT22;36508;52.512;13.450;2022-08-03T04:32:57;21.80;99.90
50556;DHT22;36508;52.512;13.450;2022-08-03T04:35:28;21.80;99.90
50556;DHT22;36508;52.512;13.450;2022-08-03T04:38:02;21.80;99.90
50556;DHT22;36508;52.512;13.450;2022-08-03T04:40:32;21.80;99.90
50556;DHT22;36508;52.512;13.450;2022-08-03T04:42:58;21.80;99.90
50556;DHT22;36508;52.512;13.450;2022-08-03T04:45:26;21.80;99.90
50556;DHT22;36508;52.512;13.450;2022-08-03T04:47:54;21.80;99.90
50556;DHT22;36508;52.512;13.450;2022-08-03T04:50:21;21.90;99.90
50556;DHT22;36508;52.512;13.450;2022-08-03T04:52:47;22.00;99.90
50556;DHT22;36508;52.512;13.450;2022-08-03T04:55:31;22.00;99.90
50556;DHT22;36508;52.512;13.450;2022-08-03T04:57:58;21.90;99.90
50556;DHT22;36508;52.512;13.450;2022-08-03T05:00:24;22.00;99.90
50556;DHT22;36508;52.512;13.450;2022-08-03T05:02:50;21.90;99.90
50556;DHT22;36508;52.512;13.450;2022-08-03T05:05:16;21.80;99.90
50556;DHT22;36508;52.512;13.450;2022-08-03T05:07:42;21.80;99.90
50556;DHT22;36508;52.512;13.450;2022-08-03T05:10:10;21.90;99.90
50556;DHT22;36508;52.512;13.450;2022-08-03T05:12:36;21.90;99.90
50556;DHT22;36508;52.512;13.450;2022-08-03T05:15:02;21.90;99.90
50556;DHT22;36508;52.512;13.450;2022-08-03T05:17:28;21.90;99.90
50556;DHT22;36508;52.512;13.450;2022-08-03T05:19:54;22.00;99.90
50556;DHT22;36508;52.512;13.450;2022-08-03T05:22:20;22.00;99.90
50556;DHT22;36508;52.512;13.450;2022-08-03T05:24:46;22.00;99.90
50556;DHT22;36508;52.512;13.450;2022-08-03T05:27:12;22.10;99.90
50556;DHT22;36508;52.512;13.450;2022-08-03T05:29:43;22.00;99.90
50556;DHT22;36508;52.512;13.450;2022-08-03T05:32:09;22.00;99.90
50556;DHT22;36508;52.512;13.450;2022-08-03T05:34:35;22.10;99.90
50556;DHT22;36508;52.512;13.450;2022-08-03T05:37:01;22.20;99.90
50556;DHT22;36508;52.512;13.450;2022-08-03T05:39:26;22.20;99.90
50556;DHT22;36508;52.512;13.450;2022-08-03T05:41:52;22.30;99.90
50556;DHT22;36508;52.512;13.450;2022-08-03T05:44:18;22.30;99.90
50556;DHT22;36508;52.512;13.450;2022-08-03T05:46:44;22.60;99.90
50556;DHT22;36508;52.512;13.450;2022-08-03T05:49:09;22.90;99.90
50556;DHT22;36508;52.512;13.450;2022-08-03T05:51:35;22.90;99.90
50556;DHT22;36508;52.512;13.450;2022-08-03T05:54:01;22.90;99.90
50556;DHT22;36508;52.512;13.450;2022-08-03T05:56:28;22.80;99.90
50556;DHT22;36508;52.512;13.450;2022-08-03T05:58:54;22.90;99.90
50556;DHT22;36508;52.512;13.450;2022-08-03T06:01:20;22.90;99.90
50556;DHT22;36508;52.512;13.450;2022-08-03T06:03:46;23.00;99.90
50556;DHT22;36508;52.512;13.450;2022-08-03T06:06:12;23.00;99.90
50556;DHT22;36508;52.512;13.450;2022-08-03T06:08:39;22.90;99.90
50556;DHT22;36508;52.512;13.450;2022-08-03T06:11:05;23.00;99.90
50556;DHT22;36508;52.512;13.450;2022-08-03T06:13:31;23.00;99.90
50556;DHT22;36508;52.512;13.450;2022-08-03T06:15:57;23.00;99.90
50556;DHT22;36508;52.512;13.450;2022-08-03T06:18:23;23.20;99.90
50556;DHT22;36508;52.512;13.450;2022-08-03T06:20:50;23.40;99.90
50556;DHT22;36508;52.512;13.450;2022-08-03T06:23:16;23.40;99.90
50556;DHT22;36508;52.512;13.450;2022-08-03T06:25:42;23.40;99.90
50556;DHT22;36508;52.512;13.450;2022-08-03T06:28:08;23.50;99.90
50556;DHT22;36508;52.512;13.450;2022-08-03T06:30:34;23.70;99.90
50556;DHT22;36508;52.512;13.450;2022-08-03T06:33:00;23.80;99.90
50556;DHT22;36508;52.512;13.450;2022-08-03T06:35:26;23.90;99.90
50556;DHT22;36508;52.512;13.450;2022-08-03T06:37:53;24.00;99.90
50556;DHT22;36508;52.512;13.450;2022-08-03T06:40:21;24.10;99.90
50556;DHT22;36508;52.512;13.450;2022-08-03T06:43:02;24.10;99.90
50556;DHT22;36508;52.512;13.450;2022-08-03T06:45:28;24.20;99.90
50556;DHT22;36508;52.512;13.450;2022-08-03T06:48:10;24.30;99.90
50556;DHT22;36508;52.512;13.450;2022-08-03T06:50:38;24.50;99.90
50556;DHT22;36508;52.512;13.450;2022-08-03T06:53:04;24.50;99.90
50556;DHT22;36508;52.512;13.450;2022-08-03T06:55:30;24.50;99.70
50556;DHT22;36508;52.512;13.450;2022-08-03T06:57:57;24.60;99.00
50556;DHT22;36508;52.512;13.450;2022-08-03T07:00:24;24.80;99.00
50556;DHT22;36508;52.512;13.450;2022-08-03T07:02:51;24.80;98.50
50556;DHT22;36508;52.512;13.450;2022-08-03T07:05:17;24.80;98.70
50556;DHT22;36508;52.512;13.450;2022-08-03T07:07:43;24.90;98.30
50556;DHT22;36508;52.512;13.450;2022-08-03T07:10:09;25.00;98.70
50556;DHT22;36508;52.512;13.450;2022-08-03T07:12:36;25.10;98.10
50556;DHT22;36508;52.512;13.450;2022-08-03T07:15:04;25.20;97.90
50556;DHT22;36508;52.512;13.450;2022-08-03T07:17:32;25.30;97.70
50556;DHT22;36508;52.512;13.450;2022-08-03T07:19:59;25.50;97.40
50556;DHT22;36508;52.512;13.450;2022-08-03T07:22:25;25.60;97.50
50556;DHT22;36508;52.512;13.450;2022-08-03T07:24:51;25.60;97.20
50556;DHT22;36508;52.512;13.450;2022-08-03T07:27:17;25.60;97.20
50556;DHT22;36508;52.512;13.450;2022-08-03T07:29:42;25.70;97.40
50556;DHT22;36508;52.512;13.450;2022-08-03T07:32:08;25.70;97.40
50556;DHT22;36508;52.512;13.450;2022-08-03T07:34:34;25.60;97.90
50556;DHT22;36508;52.512;13.450;2022-08-03T07:36:59;25.70;97.60
50556;DHT22;36508;52.512;13.450;2022-08-03T07:39:25;25.90;97.30
50556;DHT22;36508;52.512;13.450;2022-08-03T07:41:51;26.00;96.90
50556;DHT22;36508;52.512;13.450;2022-08-03T07:44:17;26.10;96.80
50556;DHT22;36508;52.512;13.450;2022-08-03T07:46:44;26.20;96.30
50556;DHT22;36508;52.512;13.450;2022-08-03T07:49:09;26.20;96.10
50556;DHT22;36508;52.512;13.450;2022-08-03T07:51:35;26.20;96.30
50556;DHT22;36508;52.512;13.450;2022-08-03T07:54:01;26.20;96.10
50556;DHT22;36508;52.512;13.450;2022-08-03T07:56:27;26.40;96.00
50556;DHT22;36508;52.512;13.450;2022-08-03T07:58:53;26.50;95.80
50556;DHT22;36508;52.512;13.450;2022-08-03T08:01:20;26.60;95.80
50556;DHT22;36508;52.512;13.450;2022-08-03T08:03:46;26.70;95.60
50556;DHT22;36508;52.512;13.450;2022-08-03T08:06:12;26.60;95.70
50556;DHT22;36508;52.512;13.450;2022-08-03T08:08:39;26.70;95.20
50556;DHT22;36508;52.512;13.450;2022-08-03T08:11:05;26.80;95.00
50556;DHT22;36508;52.512;13.450;2022-08-03T08:13:30;26.80;94.60
50556;DHT22;36508;52.512;13.450;2022-08-03T08:15:56;26.90;94.50
50556;DHT22;36508;52.512;13.450;2022-08-03T08:18:22;26.80;94.30
50556;DHT22;36508;52.512;13.450;2022-08-03T08:20:56;26.90;94.00
50556;DHT22;36508;52.512;13.450;2022-08-03T08:23:22;26.90;94.20
50556;DHT22;36508;52.512;13.450;2022-08-03T08:25:49;27.00;94.00
50556;DHT22;36508;52.512;13.450;2022-08-03T08:28:21;27.10;93.20
50556;DHT22;36508;52.512;13.450;2022-08-03T08:30:47;27.20;93.20
50556;DHT22;36508;52.512;13.450;2022-08-03T08:33:13;27.20;92.90
50556;DHT22;36508;52.512;13.450;2022-08-03T08:35:39;27.20;92.90
50556;DHT22;36508;52.512;13.450;2022-08-03T08:38:05;27.20;92.70
50556;DHT22;36508;52.512;13.450;2022-08-03T08:40:30;27.30;91.80
50556;DHT22;36508;52.512;13.450;2022-08-03T08:42:56;27.30;91.90
50556;DHT22;36508;52.512;13.450;2022-08-03T08:45:22;27.40;91.70
50556;DHT22;36508;52.512;13.450;2022-08-03T08:47:48;27.50;91.10
50556;DHT22;36508;52.512;13.450;2022-08-03T08:50:19;27.50;91.40
50556;DHT22;36508;52.512;13.450;2022-08-03T08:52:47;27.60;91.30
50556;DHT22;36508;52.512;13.450;2022-08-03T08:55:17;27.70;91.50
50556;DHT22;36508;52.512;13.450;2022-08-03T08:57:51;27.70;91.80
50556;DHT22;36508;52.512;13.450;2022-08-03T09:00:21;27.80;91.20
50556;DHT22;36508;52.512;13.450;2022-08-03T09:02:46;27.80;90.60
50556;DHT22;36508;52.512;13.450;2022-08-03T09:05:14;27.80;91.20
50556;DHT22;36508;52.512;13.450;2022-08-03T09:07:44;27.80;90.40
50556;DHT22;36508;52.512;13.450;2022-08-03T09:10:16;27.90;90.70
50556;DHT22;36508;52.512;13.450;2022-08-03T09:12:48;27.90;90.90
50556;DHT22;36508;52.512;13.450;2022-08-03T09:15:27;28.00;90.30
50556;DHT22;36508;52.512;13.450;2022-08-03T09:17:55;28.10;89.30
50556;DHT22;36508;52.512;13.450;2022-08-03T09:20:23;28.10;89.00
50556;DHT22;36508;52.512;13.450;2022-08-03T09:22:58;28.10;90.00
50556;DHT22;36508;52.512;13.450;2022-08-03T09:25:28;28.20;88.50
50556;DHT22;36508;52.512;13.450;2022-08-03T09:27:55;28.30;87.50
50556;DHT22;36508;52.512;13.450;2022-08-03T09:30:27;28.40;87.50
50556;DHT22;36508;52.512;13.450;2022-08-03T09:32:59;28.30;88.40
50556;DHT22;36508;52.512;13.450;2022-08-03T09:35:27;28.30;88.10
50556;DHT22;36508;52.512;13.450;2022-08-03T09:40:37;28.50;87.80
50556;DHT22;36508;52.512;13.450;2022-08-03T09:43:03;28.60;87.50
50556;DHT22;36508;52.512;13.450;2022-08-03T09:45:31;28.90;87.10
50556;DHT22;36508;52.512;13.450;2022-08-03T09:47:57;28.90;87.70
50556;DHT22;36508;52.512;13.450;2022-08-03T09:51:00;29.10;87.20
50556;DHT22;36508;52.512;13.450;2022-08-03T09:53:28;29.30;86.70
50556;DHT22;36508;52.512;13.450;2022-08-03T09:55:59;29.30;86.60
50556;DHT22;36508;52.512;13.450;2022-08-03T09:58:28;29.50;84.60
50556;DHT22;36508;52.512;13.450;2022-08-03T10:00:59;29.60;83.50
50556;DHT22;36508;52.512;13.450;2022-08-03T10:03:28;29.50;84.40
50556;DHT22;36508;52.512;13.450;2022-08-03T10:05:55;29.50;82.70
50556;DHT22;36508;52.512;13.450;2022-08-03T10:08:22;29.40;83.20
50556;DHT22;36508;52.512;13.450;2022-08-03T10:10:50;29.50;82.80
50556;DHT22;36508;52.512;13.450;2022-08-03T10:13:20;29.70;82.00
50556;DHT22;36508;52.512;13.450;2022-08-03T10:15:46;29.70;81.70
50556;DHT22;36508;52.512;13.450;2022-08-03T10:18:12;29.80;81.30
50556;DHT22;36508;52.512;13.450;2022-08-03T10:23:13;30.10;80.90
50556;DHT22;36508;52.512;13.450;2022-08-03T10:25:43;30.20;80.00
50556;DHT22;36508;52.512;13.450;2022-08-03T10:28:12;30.20;79.90
50556;DHT22;36508;52.512;13.450;2022-08-03T10:30:41;30.20;79.20
50556;DHT22;36508;52.512;13.450;2022-08-03T10:33:16;30.30;79.20
50556;DHT22;36508;52.512;13.450;2022-08-03T10:35:43;30.30;79.60
50556;DHT22;36508;52.512;13.450;2022-08-03T10:38:19;30.40;79.00
50556;DHT22;36508;52.512;13.450;2022-08-03T10:40:47;30.50;78.40
50556;DHT22;36508;52.512;13.450;2022-08-03T10:46:18;32.40;77.10
50556;DHT22;36508;52.512;13.450;2022-08-03T10:48:46;35.90;70.30
50556;DHT22;36508;52.512;13.450;2022-08-03T10:51:12;36.80;64.10
50556;DHT22;36508;52.512;13.450;2022-08-03T10:53:40;37.70;62.90
50556;DHT22;36508;52.512;13.450;2022-08-03T10:59:17;41.20;54.90
50556;DHT22;36508;52.512;13.450;2022-08-03T11:01:53;41.80;51.50
50556;DHT22;36508;52.512;13.450;2022-08-03T11:04:21;41.60;50.70
50556;DHT22;36508;52.512;13.450;2022-08-03T11:07:18;41.50;49.30
50556;DHT22;36508;52.512;13.450;2022-08-03T11:09:46;41.60;49.00
50556;DHT22;36508;52.512;13.450;2022-08-03T11:14:49;44.20;46.00
50556;DHT22;36508;52.512;13.450;2022-08-03T11:17:16;45.70;43.90
50556;DHT22;36508;52.512;13.450;2022-08-03T11:19:47;45.70;43.50
50556;DHT22;36508;52.512;13.450;2022-08-03T11:22:15;45.70;42.50
50556;DHT22;36508;52.512;13.450;2022-08-03T11:27:17;44.80;41.00
50556;DHT22;36508;52.512;13.450;2022-08-03T11:37:35;42.60;43.40
50556;DHT22;36508;52.512;13.450;2022-08-03T11:40:02;44.20;42.10
50556;DHT22;36508;52.512;13.450;2022-08-03T11:44:58;44.60;40.30
50556;DHT22;36508;52.512;13.450;2022-08-03T11:47:26;43.70;40.80
50556;DHT22;36508;52.512;13.450;2022-08-03T11:49:57;43.40;41.30
50556;DHT22;36508;52.512;13.450;2022-08-03T11:52:25;44.50;40.80
50556;DHT22;36508;52.512;13.450;2022-08-03T11:54:52;45.10;39.80
50556;DHT22;36508;52.512;13.450;2022-08-03T11:57:29;44.60;39.40
50556;DHT22;36508;52.512;13.450;2022-08-03T11:59:55;43.90;39.90
50556;DHT22;36508;52.512;13.450;2022-08-03T12:02:20;44.70;40.30
50556;DHT22;36508;52.512;13.450;2022-08-03T12:07:18;44.40;39.50
50556;DHT22;36508;52.512;13.450;2022-08-03T12:10:21;43.20;39.70
50556;DHT22;36508;52.512;13.450;2022-08-03T12:12:57;42.20;40.80
50556;DHT22;36508;52.512;13.450;2022-08-03T12:15:30;40.40;41.80
50556;DHT22;36508;52.512;13.450;2022-08-03T12:17:58;38.70;43.30
50556;DHT22;36508;52.512;13.450;2022-08-03T12:20:28;37.50;45.00
50556;DHT22;36508;52.512;13.450;2022-08-03T12:22:54;36.50;46.20
50556;DHT22;36508;52.512;13.450;2022-08-03T12:25:28;35.70;47.50
50556;DHT22;36508;52.512;13.450;2022-08-03T12:30:34;34.70;48.50
50556;DHT22;36508;52.512;13.450;2022-08-03T12:33:24;34.70;49.60
50556;DHT22;36508;52.512;13.450;2022-08-03T12:36:08;34.80;49.30
50556;DHT22;36508;52.512;13.450;2022-08-03T12:38:36;35.10;49.20
50556;DHT22;36508;52.512;13.450;2022-08-03T12:41:09;35.40;49.40
50556;DHT22;36508;52.512;13.450;2022-08-03T12:43:49;35.30;49.70
50556;DHT22;36508;52.512;13.450;2022-08-03T12:46:17;35.00;48.60
50556;DHT22;36508;52.512;13.450;2022-08-03T12:49:10;34.90;49.10
50556;DHT22;36508;52.512;13.450;2022-08-03T12:51:54;34.70;50.00
50556;DHT22;36508;52.512;13.450;2022-08-03T12:54:24;34.70;49.90
50556;DHT22;36508;52.512;13.450;2022-08-03T12:57:11;34.20;50.60
50556;DHT22;36508;52.512;13.450;2022-08-03T12:59:42;34.30;50.70
50556;DHT22;36508;52.512;13.450;2022-08-03T13:02:28;34.70;50.60
50556;DHT22;36508;52.512;13.450;2022-08-03T13:04:54;34.80;50.80
50556;DHT22;36508;52.512;13.450;2022-08-03T13:07:21;35.00;50.40
50556;DHT22;36508;52.512;13.450;2022-08-03T13:09:48;35.30;50.00
50556;DHT22;36508;52.512;13.450;2022-08-03T13:12:18;35.30;50.10
50556;DHT22;36508;52.512;13.450;2022-08-03T13:14:49;35.00;50.10
50556;DHT22;36508;52.512;13.450;2022-08-03T13:17:15;34.70;49.90
50556;DHT22;36508;52.512;13.450;2022-08-03T13:19:44;34.50;50.70
50556;DHT22;36508;52.512;13.450;2022-08-03T13:24:45;34.40;50.60
50556;DHT22;36508;52.512;13.450;2022-08-03T13:27:11;34.40;51.30
50556;DHT22;36508;52.512;13.450;2022-08-03T13:29:37;34.40;51.20
50556;DHT22;36508;52.512;13.450;2022-08-03T13:32:04;34.20;51.90
50556;DHT22;36508;52.512;13.450;2022-08-03T13:34:31;34.10;51.90
50556;DHT22;36508;52.512;13.450;2022-08-03T13:36:57;34.10;52.30
50556;DHT22;36508;52.512;13.450;2022-08-03T13:39:22;34.20;51.80
50556;DHT22;36508;52.512;13.450;2022-08-03T13:41:51;34.60;51.40
50556;DHT22;36508;52.512;13.450;2022-08-03T13:44:18;35.00;51.00
50556;DHT22;36508;52.512;13.450;2022-08-03T13:46:47;35.00;50.70
50556;DHT22;36508;52.512;13.450;2022-08-03T13:49:14;34.70;50.70
50556;DHT22;36508;52.512;13.450;2022-08-03T13:51:40;34.50;51.30
50556;DHT22;36508;52.512;13.450;2022-08-03T13:54:06;34.30;51.00
50556;DHT22;36508;52.512;13.450;2022-08-03T13:56:32;34.10;51.00
50556;DHT22;36508;52.512;13.450;2022-08-03T13:58:58;34.20;52.10
50556;DHT22;36508;52.512;13.450;2022-08-03T14:01:24;34.50;51.60
50556;DHT22;36508;52.512;13.450;2022-08-03T14:03:50;34.60;51.30
50556;DHT22;36508;52.512;13.450;2022-08-03T14:06:21;34.60;51.20
50556;DHT22;36508;52.512;13.450;2022-08-03T14:08:47;34.60;51.60
50556;DHT22;36508;52.512;13.450;2022-08-03T14:11:13;34.60;51.30
50556;DHT22;36508;52.512;13.450;2022-08-03T14:13:39;34.70;51.30
50556;DHT22;36508;52.512;13.450;2022-08-03T14:16:05;35.00;51.40
50556;DHT22;36508;52.512;13.450;2022-08-03T14:18:31;35.30;50.80
50556;DHT22;36508;52.512;13.450;2022-08-03T14:20:57;35.00;50.90
50556;DHT22;36508;52.512;13.450;2022-08-03T14:23:24;34.90;51.10
50556;DHT22;36508;52.512;13.450;2022-08-03T14:25:50;34.80;51.50
50556;DHT22;36508;52.512;13.450;2022-08-03T14:28:16;34.70;51.80
50556;DHT22;36508;52.512;13.450;2022-08-03T14:30:42;34.50;51.30
50556;DHT22;36508;52.512;13.450;2022-08-03T14:33:08;34.50;51.60
50556;DHT22;36508;52.512;13.450;2022-08-03T14:35:33;34.60;51.80
50556;DHT22;36508;52.512;13.450;2022-08-03T14:37:59;34.80;51.20
50556;DHT22;36508;52.512;13.450;2022-08-03T14:40:25;34.80;51.20
50556;DHT22;36508;52.512;13.450;2022-08-03T14:42:50;34.90;52.40
50556;DHT22;36508;52.512;13.450;2022-08-03T14:45:16;34.80;51.10
50556;DHT22;36508;52.512;13.450;2022-08-03T14:47:42;34.80;51.20
50556;DHT22;36508;52.512;13.450;2022-08-03T14:50:08;34.90;51.30
50556;DHT22;36508;52.512;13.450;2022-08-03T14:52:34;34.80;51.50
50556;DHT22;36508;52.512;13.450;2022-08-03T14:55:00;34.90;51.50
50556;DHT22;36508;52.512;13.450;2022-08-03T14:57:26;34.90;50.80
50556;DHT22;36508;52.512;13.450;2022-08-03T14:59:52;34.80;51.60
50556;DHT22;36508;52.512;13.450;2022-08-03T15:02:18;34.80;51.20
50556;DHT22;36508;52.512;13.450;2022-08-03T15:04:44;35.10;51.10
50556;DHT22;36508;52.512;13.450;2022-08-03T15:07:09;34.80;51.20
50556;DHT22;36508;52.512;13.450;2022-08-03T15:09:35;34.90;51.70
50556;DHT22;36508;52.512;13.450;2022-08-03T15:12:04;35.10;51.10
50556;DHT22;36508;52.512;13.450;2022-08-03T15:14:29;35.10;51.50
50556;DHT22;36508;52.512;13.450;2022-08-03T15:16:55;35.30;51.10
50556;DHT22;36508;52.512;13.450;2022-08-03T15:19:21;35.40;51.10
50556;DHT22;36508;52.512;13.450;2022-08-03T15:21:46;35.60;50.50
50556;DHT22;36508;52.512;13.450;2022-08-03T15:24:12;35.60;50.30
50556;DHT22;36508;52.512;13.450;2022-08-03T15:26:37;35.40;50.10
50556;DHT22;36508;52.512;13.450;2022-08-03T15:29:03;35.40;50.90
50556;DHT22;36508;52.512;13.450;2022-08-03T15:31:29;35.60;50.60
50556;DHT22;36508;52.512;13.450;2022-08-03T15:33:55;35.80;50.20
50556;DHT22;36508;52.512;13.450;2022-08-03T15:36:21;35.80;50.50
50556;DHT22;36508;52.512;13.450;2022-08-03T15:38:47;35.80;50.60
50556;DHT22;36508;52.512;13.450;2022-08-03T15:41:14;35.70;50.70
50556;DHT22;36508;52.512;13.450;2022-08-03T15:43:40;35.90;50.30
50556;DHT22;36508;52.512;13.450;2022-08-03T15:46:06;36.30;49.60
50556;DHT22;36508;52.512;13.450;2022-08-03T15:48:32;37.00;49.30
50556;DHT22;36508;52.512;13.450;2022-08-03T15:50:58;37.80;48.80
50556;DHT22;36508;52.512;13.450;2022-08-03T15:53:27;38.50;48.20
50556;DHT22;36508;52.512;13.450;2022-08-03T15:55:52;38.50;47.70
50556;DHT22;36508;52.512;13.450;2022-08-03T15:58:18;38.30;48.00
50556;DHT22;36508;52.512;13.450;2022-08-03T16:00:44;38.60;47.80
50556;DHT22;36508;52.512;13.450;2022-08-03T16:03:10;38.70;47.50
50556;DHT22;36508;52.512;13.450;2022-08-03T16:05:36;39.40;47.50
50556;DHT22;36508;52.512;13.450;2022-08-03T16:08:01;39.40;47.10
50556;DHT22;36508;52.512;13.450;2022-08-03T16:10:27;39.20;47.10
50556;DHT22;36508;52.512;13.450;2022-08-03T16:12:55;39.60;47.80
50556;DHT22;36508;52.512;13.450;2022-08-03T16:15:23;39.40;47.50